sensor_id;sensor_type;location;lat;lon;timestamp;P1;durP1;ratioP1;P2;durP2;ratioP2
11303;SDS011;5707;49.588;12.148;2023-11-21T00:01:35;1.02;;;0.70;;
11303;SDS011;5707;49.588;12.148;2023-11-21T00:04:01;1.92;;;0.93;;
11303;SDS011;5707;49.588;12.148;2023-11-21T00:06:27;1.88;;;0.80;;
11303;SDS011;5707;49.588;12.148;2023-11-21T00:08:52;1.40;;;0.70;;
11303;SDS011;5707;49.588;12.148;2023-11-21T00:11:18;2.47;;;1.02;;
11303;SDS011;5707;49.588;12.148;2023-11-21T00:13:43;2.95;;;0.93;;
11303;SDS011;5707;49.588;12.148;2023-11-21T00:16:10;2.05;;;0.82;;
11303;SDS011;5707;49.588;12.148;2023-11-21T00:18:36;1.33;;;0.73;;
11303;SDS011;5707;49.588;12.148;2023-11-21T00:21:01;1.17;;;0.70;;
11303;SDS011;5707;49.588;12.148;2023-11-21T00:23:28;1.30;;;0.70;;
11303;SDS011;5707;49.588;12.148;2023-11-21T00:25:54;1.45;;;0.90;;
11303;SDS011;5707;49.588;12.148;2023-11-21T00:28:19;1.63;;;0.88;;
11303;SDS011;5707;49.588;12.148;2023-11-21T00:30:45;0.77;;;0.73;;
11303;SDS011;5707;49.588;12.148;2023-11-21T00:33:10;1.60;;;0.90;;
11303;SDS011;5707;49.588;12.148;2023-11-21T00:35:36;1.88;;;1.00;;
11303;SDS011;5707;49.588;12.148;2023-11-21T00:38:02;1.15;;;0.70;;
11303;SDS011;5707;49.588;12.148;2023-11-21T00:40:28;0.93;;;0.80;;
11303;SDS011;5707;49.588;12.148;2023-11-21T00:42:54;1.08;;;0.80;;
11303;SDS011;5707;49.588;12.148;2023-11-21T00:45:21;1.23;;;0.80;;
11303;SDS011;5707;49.588;12.148;2023-11-21T00:47:46;0.93;;;0.60;;
11303;SDS011;5707;49.588;12.148;2023-11-21T00:50:12;1.95;;;0.65;;
11303;SDS011;5707;49.588;12.148;2023-11-21T00:52:38;1.15;;;0.85;;
11303;SDS011;5707;49.588;12.148;2023-11-21T00:55:04;3.72;;;0.70;;
11303;SDS011;5707;49.588;12.148;2023-11-21T00:57:32;2.25;;;0.82;;
11303;SDS011;5707;49.588;12.148;2023-11-21T00:59:58;0.75;;;0.60;;
11303;SDS011;5707;49.588;12.148;2023-11-21T01:02:23;0.98;;;0.80;;
11303;SDS011;5707;49.588;12.148;2023-11-21T01:04:50;1.67;;;0.90;;
11303;SDS011;5707;49.588;12.148;2023-11-21T01:07:15;1.23;;;0.70;;
11303;SDS011;5707;49.588;12.148;2023-11-21T01:09:41;2.15;;;0.90;;
11303;SDS011;5707;49.588;12.148;2023-11-21T01:12:09;0.80;;;0.75;;
11303;SDS011;5707;49.588;12.148;2023-11-21T01:14:34;2.60;;;0.82;;
11303;SDS011;5707;49.588;12.148;2023-11-21T01:17:01;1.80;;;0.82;;
11303;SDS011;5707;49.588;12.148;2023-11-21T01:19:29;1.20;;;0.70;;
11303;SDS011;5707;49.588;12.148;2023-11-21T01:21:54;1.70;;;0.90;;
11303;SDS011;5707;49.588;12.148;2023-11-21T01:24:20;1.02;;;0.65;;
11303;SDS011;5707;49.588;12.148;2023-11-21T01:26:46;1.08;;;0.55;;
11303;SDS011;5707;49.588;12.148;2023-11-21T01:29:12;1.95;;;0.85;;
11303;SDS011;5707;49.588;12.148;2023-11-21T01:31:37;2.33;;;0.70;;
11303;SDS011;5707;49.588;12.148;2023-11-21T01:34:03;1.58;;;0.60;;
11303;SDS011;5707;49.588;12.148;2023-11-21T01:36:30;0.80;;;0.63;;
11303;SDS011;5707;49.588;12.148;2023-11-21T01:38:57;1.50;;;0.70;;
11303;SDS011;5707;49.588;12.148;2023-11-21T01:41:24;0.65;;;0.38;;
11303;SDS011;5707;49.588;12.148;2023-11-21T01:43:53;1.00;;;0.70;;
11303;SDS011;5707;49.588;12.148;2023-11-21T01:46:20;1.38;;;0.70;;
11303;SDS011;5707;49.588;12.148;2023-11-21T01:48:47;1.95;;;0.70;;
11303;SDS011;5707;49.588;12.148;2023-11-21T01:51:14;1.63;;;0.80;;
11303;SDS011;5707;49.588;12.148;2023-11-21T01:53:40;0.90;;;0.60;;
11303;SDS011;5707;49.588;12.148;2023-11-21T01:56:06;0.75;;;0.60;;
11303;SDS011;5707;49.588;12.148;2023-11-21T01:58:33;1.40;;;0.80;;
11303;SDS011;5707;49.588;12.148;2023-11-21T02:00:59;0.82;;;0.65;;
11303;SDS011;5707;49.588;12.148;2023-11-21T02:03:24;1.88;;;0.65;;
11303;SDS011;5707;49.588;12.148;2023-11-21T02:05:51;1.15;;;0.65;;
11303;SDS011;5707;49.588;12.148;2023-11-21T02:08:18;0.73;;;0.60;;
11303;SDS011;5707;49.588;12.148;2023-11-21T02:10:44;1.30;;;0.57;;
11303;SDS011;5707;49.588;12.148;2023-11-21T02:13:10;0.93;;;0.80;;
11303;SDS011;5707;49.588;12.148;2023-11-21T02:15:36;0.70;;;0.70;;
11303;SDS011;5707;49.588;12.148;2023-11-21T02:18:03;0.60;;;0.60;;
11303;SDS011;5707;49.588;12.148;2023-11-21T02:20:31;1.75;;;0.75;;
11303;SDS011;5707;49.588;12.148;2023-11-21T02:23:00;1.95;;;0.88;;
11303;SDS011;5707;49.588;12.148;2023-11-21T02:25:27;1.58;;;0.60;;
11303;SDS011;5707;49.588;12.148;2023-11-21T02:27:57;0.95;;;0.50;;
11303;SDS011;5707;49.588;12.148;2023-11-21T02:30:24;1.48;;;0.55;;
11303;SDS011;5707;49.588;12.148;2023-11-21T02:32:53;1.17;;;0.40;;
11303;SDS011;5707;49.588;12.148;2023-11-21T02:35:19;3.00;;;0.50;;
11303;SDS011;5707;49.588;12.148;2023-11-21T02:37:50;0.68;;;0.40;;
11303;SDS011;5707;49.588;12.148;2023-11-21T02:40:16;0.75;;;0.60;;
11303;SDS011;5707;49.588;12.148;2023-11-21T02:42:46;0.55;;;0.40;;
11303;SDS011;5707;49.588;12.148;2023-11-21T02:45:12;0.80;;;0.50;;
11303;SDS011;5707;49.588;12.148;2023-11-21T02:47:39;0.77;;;0.68;;
11303;SDS011;5707;49.588;12.148;2023-11-21T02:50:05;0.98;;;0.70;;
11303;SDS011;5707;49.588;12.148;2023-11-21T02:52:33;0.80;;;0.57;;
11303;SDS011;5707;49.588;12.148;2023-11-21T02:55:00;1.60;;;0.82;;
11303;SDS011;5707;49.588;12.148;2023-11-21T02:57:28;2.15;;;0.50;;
11303;SDS011;5707;49.588;12.148;2023-11-21T02:59:54;0.73;;;0.60;;
11303;SDS011;5707;49.588;12.148;2023-11-21T03:02:20;1.13;;;0.52;;
11303;SDS011;5707;49.588;12.148;2023-11-21T03:04:45;1.10;;;0.47;;
11303;SDS011;5707;49.588;12.148;2023-11-21T03:07:13;1.25;;;0.50;;
11303;SDS011;5707;49.588;12.148;2023-11-21T03:09:38;0.43;;;0.25;;
11303;SDS011;5707;49.588;12.148;2023-11-21T03:12:04;1.23;;;0.43;;
11303;SDS011;5707;49.588;12.148;2023-11-21T03:14:30;0.50;;;0.30;;
11303;SDS011;5707;49.588;12.148;2023-11-21T03:16:56;0.77;;;0.30;;
11303;SDS011;5707;49.588;12.148;2023-11-21T03:19:22;0.63;;;0.32;;
11303;SDS011;5707;49.588;12.148;2023-11-21T03:21:48;1.88;;;0.47;;
11303;SDS011;5707;49.588;12.148;2023-11-21T03:24:14;0.73;;;0.40;;
11303;SDS011;5707;49.588;12.148;2023-11-21T03:26:44;3.30;;;0.40;;
11303;SDS011;5707;49.588;12.148;2023-11-21T03:29:11;0.95;;;0.50;;
11303;SDS011;5707;49.588;12.148;2023-11-21T03:31:37;0.75;;;0.40;;
11303;SDS011;5707;49.588;12.148;2023-11-21T03:34:02;0.40;;;0.30;;
11303;SDS011;5707;49.588;12.148;2023-11-21T03:36:28;1.02;;;0.40;;
11303;SDS011;5707;49.588;12.148;2023-11-21T03:38:54;0.47;;;0.47;;
11303;SDS011;5707;49.588;12.148;2023-11-21T03:41:20;1.02;;;0.30;;
11303;SDS011;5707;49.588;12.148;2023-11-21T03:43:46;0.35;;;0.30;;
11303;SDS011;5707;49.588;12.148;2023-11-21T03:46:11;1.02;;;0.50;;
11303;SDS011;5707;49.588;12.148;2023-11-21T03:48:37;0.65;;;0.30;;
11303;SDS011;5707;49.588;12.148;2023-11-21T03:51:03;0.82;;;0.35;;
11303;SDS011;5707;49.588;12.148;2023-11-21T03:53:29;0.43;;;0.43;;
11303;SDS011;5707;49.588;12.148;2023-11-21T03:55:54;0.30;;;0.30;;
11303;SDS011;5707;49.588;12.148;2023-11-21T03:58:20;0.65;;;0.40;;
11303;SDS011;5707;49.588;12.148;2023-11-21T04:00:46;0.50;;;0.40;;
11303;SDS011;5707;49.588;12.148;2023-11-21T04:03:14;1.02;;;0.52;;
11303;SDS011;5707;49.588;12.148;2023-11-21T04:05:40;0.52;;;0.50;;
11303;SDS011;5707;49.588;12.148;2023-11-21T04:08:06;0.30;;;0.30;;
11303;SDS011;5707;49.588;12.148;2023-11-21T04:10:32;0.40;;;0.40;;
11303;SDS011;5707;49.588;12.148;2023-11-21T04:12:57;1.35;;;0.52;;
11303;SDS011;5707;49.588;12.148;2023-11-21T04:15:23;0.50;;;0.40;;
11303;SDS011;5707;49.588;12.148;2023-11-21T04:17:49;2.70;;;0.38;;
11303;SDS011;5707;49.588;12.148;2023-11-21T04:20:14;0.98;;;0.60;;
11303;SDS011;5707;49.588;12.148;2023-11-21T04:22:40;0.30;;;0.30;;
11303;SDS011;5707;49.588;12.148;2023-11-21T04:25:09;0.55;;;0.45;;
11303;SDS011;5707;49.588;12.148;2023-11-21T04:27:41;0.75;;;0.40;;
11303;SDS011;5707;49.588;12.148;2023-11-21T04:30:10;0.50;;;0.40;;
11303;SDS011;5707;49.588;12.148;2023-11-21T04:32:37;0.38;;;0.35;;
11303;SDS011;5707;49.588;12.148;2023-11-21T04:35:04;0.50;;;0.40;;
11303;SDS011;5707;49.588;12.148;2023-11-21T04:37:30;1.90;;;0.50;;
11303;SDS011;5707;49.588;12.148;2023-11-21T04:39:55;0.35;;;0.30;;
11303;SDS011;5707;49.588;12.148;2023-11-21T04:42:21;0.60;;;0.60;;
11303;SDS011;5707;49.588;12.148;2023-11-21T04:44:47;1.73;;;0.60;;
11303;SDS011;5707;49.588;12.148;2023-11-21T04:47:13;0.63;;;0.63;;
11303;SDS011;5707;49.588;12.148;2023-11-21T04:49:41;1.25;;;0.80;;
11303;SDS011;5707;49.588;12.148;2023-11-21T04:52:08;0.68;;;0.68;;
11303;SDS011;5707;49.588;12.148;2023-11-21T04:54:34;0.55;;;0.55;;
11303;SDS011;5707;49.588;12.148;2023-11-21T04:57:00;0.82;;;0.80;;
11303;SDS011;5707;49.588;12.148;2023-11-21T04:59:26;2.92;;;1.05;;
11303;SDS011;5707;49.588;12.148;2023-11-21T05:01:52;1.10;;;0.95;;
11303;SDS011;5707;49.588;12.148;2023-11-21T05:04:19;0.88;;;0.80;;
11303;SDS011;5707;49.588;12.148;2023-11-21T05:06:45;0.77;;;0.77;;
11303;SDS011;5707;49.588;12.148;2023-11-21T05:09:11;1.00;;;0.90;;
11303;SDS011;5707;49.588;12.148;2023-11-21T05:11:37;1.08;;;0.90;;
11303;SDS011;5707;49.588;12.148;2023-11-21T05:14:03;0.63;;;0.63;;
11303;SDS011;5707;49.588;12.148;2023-11-21T05:16:30;0.70;;;0.70;;
11303;SDS011;5707;49.588;12.148;2023-11-21T05:18:56;0.80;;;0.80;;
11303;SDS011;5707;49.588;12.148;2023-11-21T05:21:25;1.08;;;0.80;;
11303;SDS011;5707;49.588;12.148;2023-11-21T05:23:52;0.80;;;0.80;;
11303;SDS011;5707;49.588;12.148;2023-11-21T05:26:17;1.20;;;1.10;;
11303;SDS011;5707;49.588;12.148;2023-11-21T05:28:43;5.72;;;1.20;;
11303;SDS011;5707;49.588;12.148;2023-11-21T05:31:09;2.03;;;1.20;;
11303;SDS011;5707;49.588;12.148;2023-11-21T05:33:35;0.82;;;0.82;;
11303;SDS011;5707;49.588;12.148;2023-11-21T05:36:01;1.77;;;1.10;;
11303;SDS011;5707;49.588;12.148;2023-11-21T05:38:27;1.05;;;1.00;;
11303;SDS011;5707;49.588;12.148;2023-11-21T05:40:53;0.90;;;0.90;;
11303;SDS011;5707;49.588;12.148;2023-11-21T05:43:19;2.22;;;0.90;;
11303;SDS011;5707;49.588;12.148;2023-11-21T05:45:45;0.93;;;0.90;;
11303;SDS011;5707;49.588;12.148;2023-11-21T05:48:10;0.70;;;0.70;;
11303;SDS011;5707;49.588;12.148;2023-11-21T05:50:36;4.25;;;0.95;;
11303;SDS011;5707;49.588;12.148;2023-11-21T05:53:03;1.08;;;0.70;;
11303;SDS011;5707;49.588;12.148;2023-11-21T05:55:28;1.42;;;0.70;;
11303;SDS011;5707;49.588;12.148;2023-11-21T05:57:54;0.85;;;0.73;;
11303;SDS011;5707;49.588;12.148;2023-11-21T06:00:20;1.30;;;1.20;;
11303;SDS011;5707;49.588;12.148;2023-11-21T06:02:49;0.63;;;0.63;;
11303;SDS011;5707;49.588;12.148;2023-11-21T06:05:17;3.03;;;0.80;;
11303;SDS011;5707;49.588;12.148;2023-11-21T06:07:44;1.23;;;1.10;;
11303;SDS011;5707;49.588;12.148;2023-11-21T06:10:10;3.90;;;2.20;;
11303;SDS011;5707;49.588;12.148;2023-11-21T06:12:39;3.05;;;2.85;;
11303;SDS011;5707;49.588;12.148;2023-11-21T06:15:07;3.40;;;3.10;;
11303;SDS011;5707;49.588;12.148;2023-11-21T06:17:34;2.70;;;2.50;;
11303;SDS011;5707;49.588;12.148;2023-11-21T06:20:05;2.60;;;2.40;;
11303;SDS011;5707;49.588;12.148;2023-11-21T06:22:44;2.17;;;1.83;;
11303;SDS011;5707;49.588;12.148;2023-11-21T06:25:11;2.05;;;1.70;;
11303;SDS011;5707;49.588;12.148;2023-11-21T06:27:39;2.22;;;1.80;;
11303;SDS011;5707;49.588;12.148;2023-11-21T06:30:07;2.40;;;1.85;;
11303;SDS011;5707;49.588;12.148;2023-11-21T06:32:34;2.60;;;2.20;;
11303;SDS011;5707;49.588;12.148;2023-11-21T06:35:01;2.72;;;2.53;;
11303;SDS011;5707;49.588;12.148;2023-11-21T06:37:29;2.05;;;1.85;;
11303;SDS011;5707;49.588;12.148;2023-11-21T06:39:54;1.77;;;1.33;;
11303;SDS011;5707;49.588;12.148;2023-11-21T06:42:21;1.25;;;1.15;;
11303;SDS011;5707;49.588;12.148;2023-11-21T06:44:49;2.65;;;0.80;;
11303;SDS011;5707;49.588;12.148;2023-11-21T06:47:16;1.10;;;1.10;;
11303;SDS011;5707;49.588;12.148;2023-11-21T06:49:42;2.88;;;1.30;;
11303;SDS011;5707;49.588;12.148;2023-11-21T06:52:08;1.10;;;1.00;;
11303;SDS011;5707;49.588;12.148;2023-11-21T06:54:34;1.50;;;1.40;;
11303;SDS011;5707;49.588;12.148;2023-11-21T06:57:00;2.28;;;2.00;;
11303;SDS011;5707;49.588;12.148;2023-11-21T06:59:28;1.77;;;1.67;;
11303;SDS011;5707;49.588;12.148;2023-11-21T07:01:53;3.30;;;3.10;;
11303;SDS011;5707;49.588;12.148;2023-11-21T07:04:19;3.28;;;3.08;;
11303;SDS011;5707;49.588;12.148;2023-11-21T07:06:45;4.05;;;3.75;;
11303;SDS011;5707;49.588;12.148;2023-11-21T07:09:10;4.10;;;3.80;;
11303;SDS011;5707;49.588;12.148;2023-11-21T07:11:36;3.63;;;2.60;;
11303;SDS011;5707;49.588;12.148;2023-11-21T07:14:03;3.10;;;2.90;;
11303;SDS011;5707;49.588;12.148;2023-11-21T07:16:33;2.42;;;2.22;;
11303;SDS011;5707;49.588;12.148;2023-11-21T07:19:02;2.55;;;2.35;;
11303;SDS011;5707;49.588;12.148;2023-11-21T07:21:34;2.65;;;2.45;;
11303;SDS011;5707;49.588;12.148;2023-11-21T07:24:01;2.58;;;2.38;;
11303;SDS011;5707;49.588;12.148;2023-11-21T07:26:27;2.70;;;2.53;;
11303;SDS011;5707;49.588;12.148;2023-11-21T07:28:53;4.07;;;3.67;;
11303;SDS011;5707;49.588;12.148;2023-11-21T07:31:19;2.67;;;2.47;;
11303;SDS011;5707;49.588;12.148;2023-11-21T07:33:48;3.00;;;2.13;;
11303;SDS011;5707;49.588;12.148;2023-11-21T07:36:14;2.58;;;1.95;;
11303;SDS011;5707;49.588;12.148;2023-11-21T07:38:39;2.00;;;1.90;;
11303;SDS011;5707;49.588;12.148;2023-11-21T07:41:06;2.30;;;2.15;;
11303;SDS011;5707;49.588;12.148;2023-11-21T07:43:33;2.65;;;2.45;;
11303;SDS011;5707;49.588;12.148;2023-11-21T07:46:03;2.33;;;2.22;;
11303;SDS011;5707;49.588;12.148;2023-11-21T07:48:29;2.70;;;2.50;;
11303;SDS011;5707;49.588;12.148;2023-11-21T07:50:56;3.00;;;2.30;;
11303;SDS011;5707;49.588;12.148;2023-11-21T07:53:23;2.72;;;2.40;;
11303;SDS011;5707;49.588;12.148;2023-11-21T07:55:50;2.47;;;2.28;;
11303;SDS011;5707;49.588;12.148;2023-11-21T07:58:18;3.33;;;2.10;;
11303;SDS011;5707;49.588;12.148;2023-11-21T08:00:44;2.20;;;2.10;;
11303;SDS011;5707;49.588;12.148;2023-11-21T08:03:09;1.85;;;1.75;;
11303;SDS011;5707;49.588;12.148;2023-11-21T08:05:36;2.30;;;2.20;;
11303;SDS011;5707;49.588;12.148;2023-11-21T08:08:02;2.20;;;2.10;;
11303;SDS011;5707;49.588;12.148;2023-11-21T08:10:27;2.15;;;2.05;;
11303;SDS011;5707;49.588;12.148;2023-11-21T08:12:53;3.45;;;3.25;;
11303;SDS011;5707;49.588;12.148;2023-11-21T08:15:19;4.07;;;3.80;;
11303;SDS011;5707;49.588;12.148;2023-11-21T08:17:44;4.85;;;4.45;;
11303;SDS011;5707;49.588;12.148;2023-11-21T08:20:11;5.65;;;5.25;;
11303;SDS011;5707;49.588;12.148;2023-11-21T08:22:37;4.75;;;4.40;;
11303;SDS011;5707;49.588;12.148;2023-11-21T08:25:05;4.32;;;4.03;;
11303;SDS011;5707;49.588;12.148;2023-11-21T08:27:31;3.63;;;3.42;;
11303;SDS011;5707;49.588;12.148;2023-11-21T08:29:56;3.30;;;3.10;;
11303;SDS011;5707;49.588;12.148;2023-11-21T08:32:22;2.53;;;2.40;;
11303;SDS011;5707;49.588;12.148;2023-11-21T08:34:47;2.72;;;2.20;;
11303;SDS011;5707;49.588;12.148;2023-11-21T08:37:15;2.35;;;2.25;;
11303;SDS011;5707;49.588;12.148;2023-11-21T08:39:43;1.83;;;1.73;;
11303;SDS011;5707;49.588;12.148;2023-11-21T08:42:09;2.65;;;2.45;;
11303;SDS011;5707;49.588;12.148;2023-11-21T08:44:35;2.13;;;1.95;;
11303;SDS011;5707;49.588;12.148;2023-11-21T08:47:01;2.63;;;2.25;;
11303;SDS011;5707;49.588;12.148;2023-11-21T08:49:26;3.92;;;3.67;;
11303;SDS011;5707;49.588;12.148;2023-11-21T08:51:54;3.47;;;3.17;;
11303;SDS011;5707;49.588;12.148;2023-11-21T08:54:24;3.03;;;2.65;;
11303;SDS011;5707;49.588;12.148;2023-11-21T08:56:51;2.20;;;2.00;;
11303;SDS011;5707;49.588;12.148;2023-11-21T08:59:17;2.50;;;2.30;;
11303;SDS011;5707;49.588;12.148;2023-11-21T09:01:43;2.13;;;1.85;;
11303;SDS011;5707;49.588;12.148;2023-11-21T09:04:08;2.00;;;1.90;;
11303;SDS011;5707;49.588;12.148;2023-11-21T09:06:34;2.72;;;2.20;;
11303;SDS011;5707;49.588;12.148;2023-11-21T09:09:00;2.78;;;2.45;;
11303;SDS011;5707;49.588;12.148;2023-11-21T09:11:25;3.22;;;3.03;;
11303;SDS011;5707;49.588;12.148;2023-11-21T09:13:56;3.55;;;2.78;;
11303;SDS011;5707;49.588;12.148;2023-11-21T09:16:23;3.80;;;3.50;;
11303;SDS011;5707;49.588;12.148;2023-11-21T09:18:48;3.72;;;3.33;;
11303;SDS011;5707;49.588;12.148;2023-11-21T09:21:14;4.13;;;3.45;;
11303;SDS011;5707;49.588;12.148;2023-11-21T09:23:39;3.80;;;3.45;;
11303;SDS011;5707;49.588;12.148;2023-11-21T09:26:05;3.08;;;2.83;;
11303;SDS011;5707;49.588;12.148;2023-11-21T09:28:30;3.40;;;3.20;;
11303;SDS011;5707;49.588;12.148;2023-11-21T09:30:56;3.55;;;3.03;;
11303;SDS011;5707;49.588;12.148;2023-11-21T09:33:22;3.38;;;3.08;;
11303;SDS011;5707;49.588;12.148;2023-11-21T09:35:49;3.50;;;3.03;;
11303;SDS011;5707;49.588;12.148;2023-11-21T09:38:16;3.28;;;2.50;;
11303;SDS011;5707;49.588;12.148;2023-11-21T09:40:41;3.30;;;3.00;;
11303;SDS011;5707;49.588;12.148;2023-11-21T09:43:17;3.55;;;3.25;;
11303;SDS011;5707;49.588;12.148;2023-11-21T09:45:46;3.03;;;2.72;;
11303;SDS011;5707;49.588;12.148;2023-11-21T09:48:15;2.70;;;2.50;;
11303;SDS011;5707;49.588;12.148;2023-11-21T09:50:42;3.10;;;2.90;;
11303;SDS011;5707;49.588;12.148;2023-11-21T09:55:48;3.45;;;3.22;;
11303;SDS011;5707;49.588;12.148;2023-11-21T09:58:16;4.53;;;3.30;;
11303;SDS011;5707;49.588;12.148;2023-11-21T10:00:43;3.80;;;2.63;;
11303;SDS011;5707;49.588;12.148;2023-11-21T10:03:10;3.17;;;2.95;;
11303;SDS011;5707;49.588;12.148;2023-11-21T10:05:36;4.70;;;3.90;;
11303;SDS011;5707;49.588;12.148;2023-11-21T10:08:07;17.38;;;15.50;;
11303;SDS011;5707;49.588;12.148;2023-11-21T10:10:34;12.88;;;11.77;;
11303;SDS011;5707;49.588;12.148;2023-11-21T10:13:03;5.95;;;5.35;;
11303;SDS011;5707;49.588;12.148;2023-11-21T10:15:32;5.68;;;5.18;;
11303;SDS011;5707;49.588;12.148;2023-11-21T10:17:59;4.72;;;3.47;;
11303;SDS011;5707;49.588;12.148;2023-11-21T10:20:28;4.10;;;3.80;;
11303;SDS011;5707;49.588;12.148;2023-11-21T10:22:54;3.40;;;2.78;;
11303;SDS011;5707;49.588;12.148;2023-11-21T10:25:21;3.25;;;2.92;;
11303;SDS011;5707;49.588;12.148;2023-11-21T10:27:47;3.65;;;2.85;;
11303;SDS011;5707;49.588;12.148;2023-11-21T10:30:17;3.00;;;2.80;;
11303;SDS011;5707;49.588;12.148;2023-11-21T10:32:43;2.75;;;2.55;;
11303;SDS011;5707;49.588;12.148;2023-11-21T10:35:09;2.60;;;2.40;;
11303;SDS011;5707;49.588;12.148;2023-11-21T10:37:39;5.57;;;2.55;;
11303;SDS011;5707;49.588;12.148;2023-11-21T10:40:07;2.38;;;2.20;;
11303;SDS011;5707;49.588;12.148;2023-11-21T10:42:37;3.45;;;2.25;;
11303;SDS011;5707;49.588;12.148;2023-11-21T10:45:04;2.58;;;1.95;;
11303;SDS011;5707;49.588;12.148;2023-11-21T10:47:37;1.58;;;1.48;;
11303;SDS011;5707;49.588;12.148;2023-11-21T10:50:04;1.70;;;1.60;;
11303;SDS011;5707;49.588;12.148;2023-11-21T10:52:30;2.08;;;1.08;;
11303;SDS011;5707;49.588;12.148;2023-11-21T10:54:56;1.10;;;1.10;;
11303;SDS011;5707;49.588;12.148;2023-11-21T10:57:24;0.57;;;0.57;;
11303;SDS011;5707;49.588;12.148;2023-11-21T10:59:50;2.20;;;0.80;;
11303;SDS011;5707;49.588;12.148;2023-11-21T11:02:25;0.60;;;0.60;;
11303;SDS011;5707;49.588;12.148;2023-11-21T11:04:53;0.50;;;0.50;;
11303;SDS011;5707;49.588;12.148;2023-11-21T11:07:21;0.60;;;0.60;;
11303;SDS011;5707;49.588;12.148;2023-11-21T11:09:50;0.68;;;0.68;;
11303;SDS011;5707;49.588;12.148;2023-11-21T11:12:17;0.95;;;0.95;;
11303;SDS011;5707;49.588;12.148;2023-11-21T11:14:44;1.10;;;1.00;;
11303;SDS011;5707;49.588;12.148;2023-11-21T11:17:10;2.13;;;1.77;;
11303;SDS011;5707;49.588;12.148;2023-11-21T11:19:36;1.08;;;1.00;;
11303;SDS011;5707;49.588;12.148;2023-11-21T11:28:10;0.60;;;0.60;;
11303;SDS011;5707;49.588;12.148;2023-11-21T11:33:21;0.40;;;0.40;;
11303;SDS011;5707;49.588;12.148;2023-11-21T11:38:22;1.17;;;0.40;;
11303;SDS011;5707;49.588;12.148;2023-11-21T11:40:52;1.70;;;1.60;;
11303;SDS011;5707;49.588;12.148;2023-11-21T11:43:27;1.42;;;1.33;;
11303;SDS011;5707;49.588;12.148;2023-11-21T11:45:56;0.40;;;0.40;;
11303;SDS011;5707;49.588;12.148;2023-11-21T11:48:24;0.20;;;0.20;;
11303;SDS011;5707;49.588;12.148;2023-11-21T11:51:05;0.20;;;0.20;;
11303;SDS011;5707;49.588;12.148;2023-11-21T11:53:46;0.30;;;0.30;;
11303;SDS011;5707;49.588;12.148;2023-11-21T11:58:51;0.65;;;0.43;;
11303;SDS011;5707;49.588;12.148;2023-11-21T12:01:18;0.40;;;0.40;;
11303;SDS011;5707;49.588;12.148;2023-11-21T12:03:44;0.30;;;0.30;;
11303;SDS011;5707;49.588;12.148;2023-11-21T12:06:32;0.40;;;0.40;;
11303;SDS011;5707;49.588;12.148;2023-11-21T12:09:01;0.60;;;0.60;;
11303;SDS011;5707;49.588;12.148;2023-11-21T12:11:30;0.68;;;0.40;;
11303;SDS011;5707;49.588;12.148;2023-11-21T12:13:56;0.28;;;0.28;;
11303;SDS011;5707;49.588;12.148;2023-11-21T12:16:24;0.50;;;0.38;;
11303;SDS011;5707;49.588;12.148;2023-11-21T12:18:52;0.20;;;0.20;;
11303;SDS011;5707;49.588;12.148;2023-11-21T12:21:19;0.45;;;0.30;;
11303;SDS011;5707;49.588;12.148;2023-11-21T12:23:45;0.98;;;0.40;;
11303;SDS011;5707;49.588;12.148;2023-11-21T12:26:12;0.47;;;0.38;;
11303;SDS011;5707;49.588;12.148;2023-11-21T12:28:38;0.40;;;0.40;;
11303;SDS011;5707;49.588;12.148;2023-11-21T12:31:04;1.45;;;0.32;;
11303;SDS011;5707;49.588;12.148;2023-11-21T12:33:31;0.47;;;0.47;;
11303;SDS011;5707;49.588;12.148;2023-11-21T12:36:00;0.43;;;0.40;;
11303;SDS011;5707;49.588;12.148;2023-11-21T12:38:33;1.40;;;0.70;;
11303;SDS011;5707;49.588;12.148;2023-11-21T12:41:00;0.40;;;0.40;;
11303;SDS011;5707;49.588;12.148;2023-11-21T12:43:25;0.70;;;0.70;;
11303;SDS011;5707;49.588;12.148;2023-11-21T12:45:51;0.50;;;0.50;;
11303;SDS011;5707;49.588;12.148;2023-11-21T12:48:34;1.70;;;0.55;;
11303;SDS011;5707;49.588;12.148;2023-11-21T12:51:04;0.82;;;0.50;;
11303;SDS011;5707;49.588;12.148;2023-11-21T12:53:31;0.50;;;0.50;;
11303;SDS011;5707;49.588;12.148;2023-11-21T12:56:02;0.40;;;0.40;;
11303;SDS011;5707;49.588;12.148;2023-11-21T12:58:31;0.55;;;0.55;;
11303;SDS011;5707;49.588;12.148;2023-11-21T13:00:58;0.93;;;0.60;;
11303;SDS011;5707;49.588;12.148;2023-11-21T13:03:24;1.00;;;0.65;;
11303;SDS011;5707;49.588;12.148;2023-11-21T13:05:51;0.60;;;0.60;;
11303;SDS011;5707;49.588;12.148;2023-11-21T13:08:22;0.85;;;0.77;;
11303;SDS011;5707;49.588;12.148;2023-11-21T13:10:49;1.20;;;0.80;;
11303;SDS011;5707;49.588;12.148;2023-11-21T13:13:20;1.45;;;0.60;;
11303;SDS011;5707;49.588;12.148;2023-11-21T13:15:49;1.92;;;0.70;;
11303;SDS011;5707;49.588;12.148;2023-11-21T13:18:22;0.55;;;0.43;;
11303;SDS011;5707;49.588;12.148;2023-11-21T13:20:48;0.50;;;0.50;;
11303;SDS011;5707;49.588;12.148;2023-11-21T13:23:15;0.88;;;0.77;;
11303;SDS011;5707;49.588;12.148;2023-11-21T13:25:43;0.55;;;0.50;;
11303;SDS011;5707;49.588;12.148;2023-11-21T13:28:10;1.10;;;0.55;;
11303;SDS011;5707;49.588;12.148;2023-11-21T13:30:36;1.88;;;0.70;;
11303;SDS011;5707;49.588;12.148;2023-11-21T13:33:04;0.85;;;0.52;;
11303;SDS011;5707;49.588;12.148;2023-11-21T13:35:36;1.77;;;0.45;;
11303;SDS011;5707;49.588;12.148;2023-11-21T13:38:07;1.35;;;0.55;;
11303;SDS011;5707;49.588;12.148;2023-11-21T13:40:34;1.02;;;0.57;;
11303;SDS011;5707;49.588;12.148;2023-11-21T13:43:12;0.98;;;0.80;;
11303;SDS011;5707;49.588;12.148;2023-11-21T13:45:39;1.20;;;1.10;;
11303;SDS011;5707;49.588;12.148;2023-11-21T13:48:05;0.85;;;0.80;;
11303;SDS011;5707;49.588;12.148;2023-11-21T13:50:38;2.05;;;0.65;;
11303;SDS011;5707;49.588;12.148;2023-11-21T13:53:18;0.60;;;0.60;;
11303;SDS011;5707;49.588;12.148;2023-11-21T13:55:48;2.88;;;1.20;;
11303;SDS011;5707;49.588;12.148;2023-11-21T13:58:20;1.33;;;0.70;;
11303;SDS011;5707;49.588;12.148;2023-11-21T14:01:11;1.25;;;1.00;;
11303;SDS011;5707;49.588;12.148;2023-11-21T14:04:07;0.55;;;0.55;;
11303;SDS011;5707;49.588;12.148;2023-11-21T14:06:45;1.17;;;0.85;;
11303;SDS011;5707;49.588;12.148;2023-11-21T14:09:15;1.23;;;0.88;;
11303;SDS011;5707;49.588;12.148;2023-11-21T14:11:51;1.65;;;1.10;;
11303;SDS011;5707;49.588;12.148;2023-11-21T14:14:19;3.00;;;2.03;;
11303;SDS011;5707;49.588;12.148;2023-11-21T14:16:45;4.03;;;3.72;;
11303;SDS011;5707;49.588;12.148;2023-11-21T14:19:11;5.05;;;4.55;;
11303;SDS011;5707;49.588;12.148;2023-11-21T14:21:43;4.15;;;3.75;;
11303;SDS011;5707;49.588;12.148;2023-11-21T14:24:09;2.47;;;1.80;;
11303;SDS011;5707;49.588;12.148;2023-11-21T14:26:37;2.25;;;2.05;;
11303;SDS011;5707;49.588;12.148;2023-11-21T14:29:07;2.22;;;2.03;;
11303;SDS011;5707;49.588;12.148;2023-11-21T14:31:33;3.13;;;2.45;;
11303;SDS011;5707;49.588;12.148;2023-11-21T14:34:00;3.65;;;3.00;;
11303;SDS011;5707;49.588;12.148;2023-11-21T14:36:31;3.50;;;3.30;;
11303;SDS011;5707;49.588;12.148;2023-11-21T14:38:56;2.63;;;2.42;;
11303;SDS011;5707;49.588;12.148;2023-11-21T14:41:22;2.95;;;2.70;;
11303;SDS011;5707;49.588;12.148;2023-11-21T14:43:50;3.80;;;3.42;;
11303;SDS011;5707;49.588;12.148;2023-11-21T14:46:16;1.70;;;1.60;;
11303;SDS011;5707;49.588;12.148;2023-11-21T14:48:44;2.30;;;1.75;;
11303;SDS011;5707;49.588;12.148;2023-11-21T14:51:23;2.35;;;1.70;;
11303;SDS011;5707;49.588;12.148;2023-11-21T14:54:16;3.53;;;2.72;;
11303;SDS011;5707;49.588;12.148;2023-11-21T14:56:51;2.15;;;2.03;;
11303;SDS011;5707;49.588;12.148;2023-11-21T14:59:17;2.70;;;2.50;;
11303;SDS011;5707;49.588;12.148;2023-11-21T15:01:43;3.83;;;2.75;;
11303;SDS011;5707;49.588;12.148;2023-11-21T15:04:21;3.53;;;2.72;;
11303;SDS011;5707;49.588;12.148;2023-11-21T15:07:01;2.72;;;2.50;;